createdAt,value
2022-11-27T00:01:32.616Z,32.90
2022-11-27T00:03:59.928Z,39.28
2022-11-27T00:06:28.849Z,24.30
2022-11-27T00:08:58.464Z,33.95
2022-11-27T00:11:27.761Z,29.58
2022-11-27T00:13:55.141Z,28.50
2022-11-27T00:16:24.754Z,28.90
2022-11-27T00:18:51.890Z,27.63
2022-11-27T00:21:31.934Z,35.83
2022-11-27T00:24:01.888Z,27.88
2022-11-27T00:26:35.910Z,30.30
2022-11-27T00:29:05.651Z,24.30
2022-11-27T00:31:34.739Z,26.70
2022-11-27T00:34:05.206Z,30.65
2022-11-27T00:36:34.717Z,18.48
2022-11-27T00:39:01.868Z,26.95
2022-11-27T00:41:30.640Z,31.30
2022-11-27T00:43:58.488Z,23.38
2022-11-27T00:46:29.630Z,23.55
2022-11-27T00:48:58.875Z,28.23
2022-11-27T00:51:27.152Z,26.80
2022-11-27T00:53:55.158Z,24.85
2022-11-27T00:56:33.793Z,20.02
2022-11-27T00:59:01.234Z,23.83
2022-11-27T01:01:33.280Z,28.60
2022-11-27T01:04:02.139Z,27.27
2022-11-27T01:06:30.618Z,25.95
2022-11-27T01:08:58.902Z,26.60
2022-11-27T01:11:30.489Z,23.10
2022-11-27T01:14:02.184Z,23.40
2022-11-27T01:16:31.405Z,19.58
2022-11-27T01:19:00.969Z,22.98
2022-11-27T01:21:32.341Z,20.10
2022-11-27T01:24:01.060Z,20.17
2022-11-27T01:26:28.549Z,17.48
2022-11-27T01:28:57.426Z,23.00
2022-11-27T01:31:32.388Z,17.92
2022-11-27T01:34:06.606Z,28.30
2022-11-27T01:36:35.493Z,18.30
2022-11-27T01:39:03.614Z,19.73
2022-11-27T01:41:35.071Z,22.27
2022-11-27T01:44:25.565Z,25.13
2022-11-27T01:46:57.159Z,23.45
2022-11-27T01:49:39.751Z,21.60
2022-11-27T01:52:20.065Z,19.98
2022-11-27T01:55:19.086Z,19.27
2022-11-27T01:57:59.032Z,25.23
2022-11-27T02:00:26.682Z,21.33
2022-11-27T02:02:53.767Z,18.55
2022-11-27T02:05:28.564Z,24.50
2022-11-27T02:07:59.787Z,17.50
2022-11-27T02:10:52.483Z,17.92
2022-11-27T02:13:46.252Z,18.40
2022-11-27T02:16:37.669Z,20.23
2022-11-27T02:19:56.681Z,22.58
2022-11-27T02:23:01.296Z,18.95
2022-11-27T02:26:18.494Z,25.55
2022-11-27T02:29:01.453Z,20.48
2022-11-27T02:31:52.251Z,18.10
2022-11-27T02:34:45.960Z,22.08
2022-11-27T02:37:32.859Z,17.23
2022-11-27T02:40:05.896Z,19.05
2022-11-27T02:42:40.087Z,23.73
2022-11-27T02:45:13.247Z,31.42
2022-11-27T02:47:44.188Z,22.15
2022-11-27T02:50:17.038Z,23.20
2022-11-27T02:52:46.049Z,32.65
2022-11-27T02:55:19.049Z,25.63
2022-11-27T02:57:46.659Z,28.67
2022-11-27T03:00:14.710Z,27.08
2022-11-27T03:02:50.966Z,33.30
2022-11-27T03:05:22.000Z,27.42
2022-11-27T03:08:02.406Z,22.02
2022-11-27T03:10:54.793Z,27.30
2022-11-27T03:13:22.057Z,20.90
2022-11-27T03:16:06.516Z,23.92
2022-11-27T03:18:57.579Z,28.77
2022-11-27T03:21:39.133Z,22.67
2022-11-27T03:24:08.577Z,27.20
2022-11-27T03:26:37.263Z,27.80
2022-11-27T03:29:09.990Z,29.33
2022-11-27T03:31:38.222Z,27.67
2022-11-27T03:34:05.767Z,22.20
2022-11-27T03:36:33.018Z,27.33
2022-11-27T03:39:00.066Z,18.23
2022-11-27T03:41:47.004Z,23.52
2022-11-27T03:44:29.745Z,22.27
2022-11-27T03:47:18.232Z,25.02
2022-11-27T03:49:53.017Z,23.45
2022-11-27T03:52:37.219Z,27.17
2022-11-27T03:55:31.351Z,25.02
2022-11-27T03:58:07.548Z,19.25
2022-11-27T04:03:12.197Z,18.63
2022-11-27T04:05:40.187Z,28.48
2022-11-27T04:08:07.025Z,19.75
2022-11-27T04:10:34.088Z,24.17
2022-11-27T04:13:01.128Z,23.35
2022-11-27T04:15:28.053Z,23.27
2022-11-27T04:17:55.182Z,22.85
2022-11-27T04:20:22.194Z,23.27
2022-11-27T04:22:49.539Z,23.52
2022-11-27T04:25:17.607Z,24.85
2022-11-27T04:27:44.643Z,23.67
2022-11-27T04:30:12.764Z,23.95
2022-11-27T04:32:40.024Z,20.52
2022-11-27T04:35:07.452Z,20.70
2022-11-27T04:37:35.131Z,19.92
2022-11-27T04:40:02.157Z,24.00
2022-11-27T04:42:29.230Z,21.25
2022-11-27T04:44:56.144Z,22.73
2022-11-27T04:47:23.154Z,18.55
2022-11-27T04:49:50.347Z,23.88
2022-11-27T04:52:17.283Z,23.70
2022-11-27T04:54:44.700Z,22.10
2022-11-27T04:57:12.052Z,18.42
2022-11-27T04:59:39.002Z,26.02
2022-11-27T05:02:06.461Z,19.33
2022-11-27T05:04:33.421Z,24.45
2022-11-27T05:07:00.695Z,22.77
2022-11-27T05:09:27.679Z,23.88
2022-11-27T05:11:54.759Z,20.92
2022-11-27T05:14:24.916Z,18.35
2022-11-27T05:16:54.465Z,18.35
2022-11-27T05:19:23.705Z,17.48
2022-11-27T05:21:51.103Z,22.60
2022-11-27T05:24:21.295Z,22.13
2022-11-27T05:26:48.560Z,20.27
2022-11-27T05:29:15.955Z,21.00
2022-11-27T05:31:43.882Z,19.75
2022-11-27T05:34:11.348Z,21.92
2022-11-27T05:36:38.398Z,22.70
2022-11-27T05:39:07.421Z,17.52
2022-11-27T05:41:36.183Z,15.82
2022-11-27T05:44:04.431Z,20.95
2022-11-27T05:46:31.773Z,25.13
2022-11-27T05:48:59.755Z,20.42
2022-11-27T05:51:26.759Z,21.67
2022-11-27T05:53:53.946Z,20.10
2022-11-27T05:56:20.958Z,17.15
2022-11-27T05:58:48.871Z,22.15
2022-11-27T06:01:19.130Z,18.60
2022-11-27T06:03:46.361Z,17.17
2022-11-27T06:06:16.662Z,25.30
2022-11-27T06:08:44.825Z,29.05
2022-11-27T06:11:17.347Z,24.42
2022-11-27T06:13:46.187Z,20.88
2022-11-27T06:16:23.137Z,30.15
2022-11-27T06:18:55.312Z,18.75
2022-11-27T06:21:24.335Z,18.70
2022-11-27T06:23:55.683Z,24.63
2022-11-27T06:26:26.963Z,21.25
2022-11-27T06:28:55.863Z,23.70
2022-11-27T06:31:29.978Z,22.98
2022-11-27T06:33:58.636Z,19.73
2022-11-27T06:36:30.389Z,19.75
2022-11-27T06:38:57.342Z,19.40
2022-11-27T06:41:27.343Z,23.33
2022-11-27T06:43:55.474Z,26.48
2022-11-27T06:46:24.070Z,19.08
2022-11-27T06:48:53.283Z,19.50
2022-11-27T06:51:26.404Z,20.58
2022-11-27T06:53:54.163Z,21.90
2022-11-27T06:56:27.456Z,17.73
2022-11-27T06:58:57.748Z,18.35
2022-11-27T07:01:27.215Z,21.10
2022-11-27T07:03:54.106Z,18.77
2022-11-27T07:06:23.954Z,21.55
2022-11-27T07:08:51.670Z,19.40
2022-11-27T07:11:25.151Z,24.15
2022-11-27T07:13:57.282Z,18.55
2022-11-27T07:16:25.092Z,23.73
2022-11-27T07:18:59.571Z,21.23
2022-11-27T07:21:27.844Z,27.92
2022-11-27T07:23:56.658Z,20.23
2022-11-27T07:26:30.157Z,22.38
2022-11-27T07:28:57.308Z,23.45
2022-11-27T07:31:30.496Z,26.60
2022-11-27T07:33:58.118Z,24.45
2022-11-27T07:36:29.167Z,18.70
2022-11-27T07:38:57.891Z,23.88
2022-11-27T07:41:29.195Z,19.80
2022-11-27T07:43:59.424Z,29.27
2022-11-27T07:46:26.808Z,21.27
2022-11-27T07:48:53.742Z,25.52
2022-11-27T07:51:22.484Z,25.85
2022-11-27T07:53:52.050Z,21.67
2022-11-27T07:56:19.594Z,24.83
2022-11-27T07:58:46.935Z,24.35
2022-11-27T08:01:18.374Z,25.90
2022-11-27T08:03:46.148Z,26.90
2022-11-27T08:06:21.515Z,29.55
2022-11-27T08:08:50.662Z,23.48
2022-11-27T08:11:25.499Z,23.38
2022-11-27T08:13:58.655Z,22.27
2022-11-27T08:16:26.595Z,21.80
2022-11-27T08:18:54.373Z,24.65
2022-11-27T08:21:22.096Z,21.67
2022-11-27T08:23:49.383Z,20.58
2022-11-27T08:26:16.936Z,24.02
2022-11-27T08:28:44.318Z,19.85
2022-11-27T08:31:13.484Z,17.58
2022-11-27T08:33:41.419Z,23.77
2022-11-27T08:36:13.712Z,19.33
2022-11-27T08:38:44.857Z,23.88
2022-11-27T08:41:11.988Z,17.88
2022-11-27T08:43:39.023Z,22.83
2022-11-27T08:46:07.199Z,20.02
2022-11-27T08:48:34.761Z,16.38
2022-11-27T08:51:08.050Z,17.92
2022-11-27T08:53:37.707Z,18.58
2022-11-27T08:56:26.121Z,16.80
2022-11-27T08:58:53.354Z,17.52
2022-11-27T09:01:31.944Z,14.80
2022-11-27T09:03:59.731Z,15.90
2022-11-27T09:06:30.422Z,14.40
2022-11-27T09:08:59.636Z,15.65
2022-11-27T09:11:28.371Z,13.82
2022-11-27T09:13:55.301Z,15.73
2022-11-27T09:16:23.162Z,12.70
2022-11-27T09:18:52.657Z,15.90
2022-11-27T09:21:23.176Z,14.93
2022-11-27T09:23:55.021Z,16.85
2022-11-27T09:26:24.080Z,11.73
2022-11-27T09:28:51.674Z,14.25
2022-11-27T09:31:19.495Z,14.38
2022-11-27T09:33:46.657Z,14.65
2022-11-27T09:36:21.796Z,13.35
2022-11-27T09:38:49.861Z,11.90
2022-11-27T09:41:44.322Z,14.15
2022-11-27T09:44:43.645Z,11.60
2022-11-27T09:47:41.599Z,11.90
2022-11-27T09:50:27.955Z,13.63
2022-11-27T09:53:31.818Z,12.20
2022-11-27T09:56:03.796Z,12.02
2022-11-27T09:58:41.779Z,10.40
2022-11-27T10:01:14.727Z,12.98
2022-11-27T10:03:43.743Z,14.32
2022-11-27T10:06:54.332Z,11.00
2022-11-27T10:09:39.706Z,10.77
2022-11-27T10:12:25.188Z,11.98
2022-11-27T10:15:04.339Z,10.25
2022-11-27T10:17:45.460Z,10.80
2022-11-27T10:20:20.808Z,9.43
2022-11-27T10:23:12.178Z,13.85
2022-11-27T10:25:46.463Z,9.88
2022-11-27T10:29:00.358Z,10.15
2022-11-27T10:31:37.561Z,9.02
2022-11-27T10:34:21.037Z,10.95
2022-11-27T10:36:50.969Z,13.50
2022-11-27T10:39:31.106Z,10.15
2022-11-27T10:42:08.893Z,7.82
2022-11-27T10:44:46.285Z,12.93
2022-11-27T10:47:14.121Z,13.40
2022-11-27T10:49:44.322Z,12.27
2022-11-27T10:52:19.240Z,14.13
2022-11-27T10:54:54.661Z,12.70
2022-11-27T10:57:57.383Z,9.75
2022-11-27T11:00:25.697Z,9.27
2022-11-27T11:03:05.559Z,11.63
2022-11-27T11:08:21.767Z,9.48
2022-11-27T11:11:05.534Z,9.93
2022-11-27T11:13:39.958Z,11.55
2022-11-27T11:16:24.755Z,8.20
2022-11-27T11:18:55.569Z,8.85
2022-11-27T11:21:31.932Z,10.60
2022-11-27T11:24:01.931Z,8.35
2022-11-27T11:26:33.277Z,13.57
2022-11-27T11:29:06.250Z,10.10
2022-11-27T11:31:40.712Z,7.95
2022-11-27T11:34:21.531Z,8.20
2022-11-27T11:37:05.047Z,8.15
2022-11-27T11:39:45.958Z,9.02
2022-11-27T11:42:23.358Z,9.13
2022-11-27T11:44:53.890Z,7.53
2022-11-27T11:47:25.073Z,10.65
2022-11-27T11:49:54.538Z,8.82
2022-11-27T11:52:59.853Z,9.18
2022-11-27T11:55:36.002Z,9.27
2022-11-27T11:58:31.241Z,8.65
2022-11-27T12:01:40.203Z,9.82
2022-11-27T12:04:35.631Z,10.70
2022-11-27T12:07:41.249Z,9.13
2022-11-27T12:10:26.206Z,10.32
2022-11-27T12:13:33.423Z,8.15
2022-11-27T12:16:23.125Z,7.53
2022-11-27T12:19:31.979Z,8.55
2022-11-27T12:22:21.216Z,9.00
2022-11-27T12:25:28.898Z,9.85
2022-11-27T12:28:21.139Z,10.38
2022-11-27T12:31:15.566Z,8.70
2022-11-27T12:34:00.781Z,7.93
2022-11-27T12:36:57.065Z,6.88
2022-11-27T12:39:34.140Z,9.38
2022-11-27T12:42:25.606Z,6.60
2022-11-27T12:45:05.322Z,9.68
2022-11-27T12:47:48.148Z,10.02
2022-11-27T12:50:41.687Z,8.00
2022-11-27T12:53:30.849Z,9.50
2022-11-27T12:56:20.544Z,9.82
2022-11-27T12:59:11.069Z,8.48
2022-11-27T13:01:52.566Z,9.73
2022-11-27T13:04:48.370Z,11.20
2022-11-27T13:07:55.934Z,10.15
2022-11-27T13:10:33.504Z,9.10
2022-11-27T13:13:23.518Z,7.93
2022-11-27T13:16:05.579Z,12.35
2022-11-27T13:19:01.663Z,8.07
2022-11-27T13:21:32.829Z,8.48
2022-11-27T13:24:04.000Z,8.48
2022-11-27T13:26:50.049Z,8.60
2022-11-27T13:29:32.229Z,11.35
2022-11-27T13:32:04.335Z,8.02
2022-11-27T13:34:34.337Z,8.95
2022-11-27T13:37:07.283Z,8.30
2022-11-27T13:39:38.307Z,7.85
2022-11-27T13:42:22.919Z,6.03
2022-11-27T13:45:11.070Z,8.65
2022-11-27T13:47:43.706Z,7.97
2022-11-27T13:50:14.978Z,8.13
2022-11-27T13:53:04.670Z,7.60
2022-11-27T13:55:37.933Z,9.93
2022-11-27T13:58:07.228Z,7.68
2022-11-27T14:00:42.636Z,6.85
2022-11-27T14:03:25.095Z,8.82
2022-11-27T14:05:53.009Z,11.02
2022-11-27T14:08:32.870Z,9.85
2022-11-27T14:11:06.716Z,9.02
2022-11-27T14:13:39.497Z,11.50
2022-11-27T14:16:33.656Z,8.23
2022-11-27T14:19:04.380Z,11.55
2022-11-27T14:21:40.999Z,8.65
2022-11-27T14:24:29.765Z,13.23
2022-11-27T14:26:57.050Z,6.47
2022-11-27T14:29:28.796Z,8.20
2022-11-27T14:32:01.414Z,12.32
2022-11-27T14:34:33.635Z,10.98
2022-11-27T14:37:01.799Z,10.23
2022-11-27T14:39:37.297Z,8.77
2022-11-27T14:42:08.169Z,13.83
2022-11-27T14:44:35.610Z,9.07
2022-11-27T14:47:06.842Z,8.13
2022-11-27T14:49:35.260Z,12.48
2022-11-27T14:52:07.779Z,9.70
2022-11-27T14:54:38.104Z,12.65
2022-11-27T14:57:06.589Z,12.02
2022-11-27T14:59:33.909Z,9.75
2022-11-27T15:02:17.288Z,13.48
2022-11-27T15:04:46.836Z,9.77
2022-11-27T15:07:26.057Z,9.77
2022-11-27T15:09:56.806Z,9.85
2022-11-27T15:12:33.871Z,8.05
2022-11-27T15:15:22.146Z,10.13
2022-11-27T15:17:58.563Z,9.23
2022-11-27T15:23:30.840Z,9.40
2022-11-27T15:26:03.981Z,11.07
2022-11-27T15:28:42.036Z,16.55
2022-11-27T15:31:34.444Z,16.02
2022-11-27T15:34:16.707Z,11.88
2022-11-27T15:36:48.441Z,10.98
2022-11-27T15:39:27.208Z,10.63
2022-11-27T15:42:03.643Z,10.57
2022-11-27T15:44:32.985Z,9.93
2022-11-27T15:47:02.207Z,15.98
2022-11-27T15:49:30.106Z,11.57
2022-11-27T15:51:57.912Z,12.43
2022-11-27T15:54:25.692Z,15.05
2022-11-27T15:56:52.734Z,18.15
2022-11-27T15:59:20.958Z,14.38
2022-11-27T16:01:49.599Z,14.02
2022-11-27T16:04:17.325Z,14.05
2022-11-27T16:06:45.356Z,17.55
2022-11-27T16:09:12.628Z,13.32
2022-11-27T16:11:40.395Z,16.00
2022-11-27T16:14:07.686Z,17.40
2022-11-27T16:16:35.407Z,17.60
2022-11-27T16:19:04.821Z,13.10
2022-11-27T16:21:33.047Z,15.18
2022-11-27T16:24:03.740Z,13.77
2022-11-27T16:26:31.422Z,12.70
2022-11-27T16:28:58.815Z,16.35
2022-11-27T16:31:26.745Z,14.63
2022-11-27T16:33:54.448Z,13.93
2022-11-27T16:36:24.466Z,16.92
2022-11-27T16:38:55.796Z,14.73
2022-11-27T16:41:25.217Z,14.65
2022-11-27T16:43:56.426Z,19.42
2022-11-27T16:46:30.115Z,13.63
2022-11-27T16:48:59.615Z,17.48
2022-11-27T16:51:32.099Z,16.13
2022-11-27T16:54:04.124Z,13.68
2022-11-27T16:56:33.620Z,14.85
2022-11-27T16:59:12.920Z,15.18
2022-11-27T17:01:41.908Z,18.10
2022-11-27T17:04:15.489Z,14.05
2022-11-27T17:06:42.751Z,12.90
2022-11-27T17:09:09.854Z,16.90
2022-11-27T17:11:42.778Z,14.43
2022-11-27T17:14:10.847Z,11.30
2022-11-27T17:16:41.331Z,16.65
2022-11-27T17:19:15.146Z,17.00
2022-11-27T17:21:43.446Z,15.68
2022-11-27T17:24:15.444Z,15.75
2022-11-27T17:26:45.504Z,15.35
2022-11-27T17:29:16.242Z,13.85
2022-11-27T17:31:44.136Z,16.65
2022-11-27T17:34:14.884Z,13.05
2022-11-27T17:36:43.971Z,13.40
2022-11-27T17:39:13.460Z,13.85
2022-11-27T17:41:42.145Z,15.45
2022-11-27T17:44:09.224Z,18.88
2022-11-27T17:46:37.165Z,13.55
2022-11-27T17:49:07.809Z,16.98
2022-11-27T17:51:36.796Z,21.35
2022-11-27T17:54:05.653Z,15.32
2022-11-27T17:56:34.885Z,16.75
2022-11-27T17:59:03.023Z,17.60
2022-11-27T18:01:33.590Z,16.95
2022-11-27T18:04:04.039Z,17.80
2022-11-27T18:06:32.692Z,17.42
2022-11-27T18:09:00.160Z,17.90
2022-11-27T18:11:30.733Z,15.52
2022-11-27T18:14:01.839Z,17.77
2022-11-27T18:16:34.306Z,15.07
2022-11-27T18:19:09.615Z,17.75
2022-11-27T18:21:38.084Z,28.30
2022-11-27T18:24:23.535Z,15.55
2022-11-27T18:27:07.799Z,17.60
2022-11-27T18:29:42.242Z,15.98
2022-11-27T18:32:10.825Z,14.13
2022-11-27T18:34:38.174Z,16.58
2022-11-27T18:37:06.703Z,17.35
2022-11-27T18:39:35.573Z,15.43
2022-11-27T18:42:04.853Z,17.88
2022-11-27T18:44:32.827Z,14.43
2022-11-27T18:47:00.594Z,16.50
2022-11-27T18:49:28.435Z,14.65
2022-11-27T18:51:56.411Z,16.58
2022-11-27T18:54:24.235Z,18.45
2022-11-27T18:56:51.294Z,21.35
2022-11-27T18:59:18.972Z,16.33
2022-11-27T19:01:46.194Z,15.32
2022-11-27T19:04:13.368Z,18.15
2022-11-27T19:06:42.381Z,19.15
2022-11-27T19:09:11.399Z,24.00
2022-11-27T19:11:39.624Z,16.33
2022-11-27T19:14:09.571Z,15.25
2022-11-27T19:16:46.345Z,15.23
2022-11-27T19:22:07.842Z,19.45
2022-11-27T19:24:35.091Z,16.83
2022-11-27T19:27:03.132Z,17.52
2022-11-27T19:29:30.404Z,20.33
2022-11-27T19:31:58.870Z,17.88
2022-11-27T19:34:26.532Z,23.55
2022-11-27T19:36:53.540Z,22.25
2022-11-27T19:39:20.586Z,17.40
2022-11-27T19:41:49.063Z,15.90
2022-11-27T19:44:17.591Z,19.55
2022-11-27T19:46:46.312Z,15.55
2022-11-27T19:49:18.428Z,17.08
2022-11-27T19:51:46.771Z,15.88
2022-11-27T19:54:15.849Z,20.35
2022-11-27T19:56:43.481Z,14.90
2022-11-27T19:59:12.498Z,17.20
2022-11-27T20:01:41.854Z,15.90
2022-11-27T20:04:11.513Z,20.90
2022-11-27T20:06:38.987Z,21.27
2022-11-27T20:09:07.116Z,18.33
2022-11-27T20:11:37.802Z,14.98
2022-11-27T20:14:05.968Z,18.10
2022-11-27T20:16:35.494Z,18.00
2022-11-27T20:19:05.757Z,17.92
2022-11-27T20:21:35.471Z,18.05
2022-11-27T20:24:03.733Z,15.80
2022-11-27T20:26:30.916Z,19.55
2022-11-27T20:28:59.910Z,17.65
2022-11-27T20:31:31.510Z,18.42
2022-11-27T20:34:02.569Z,15.02
2022-11-27T20:36:39.000Z,24.63
2022-11-27T20:39:06.905Z,22.88
2022-11-27T20:41:34.331Z,19.30
2022-11-27T20:44:04.736Z,18.55
2022-11-27T20:46:33.323Z,17.45
2022-11-27T20:49:01.599Z,20.20
2022-11-27T20:51:33.458Z,18.63
2022-11-27T20:54:08.227Z,17.33
2022-11-27T20:56:35.597Z,18.30
2022-11-27T20:59:04.943Z,19.67
2022-11-27T21:01:34.932Z,19.50
2022-11-27T21:04:20.173Z,18.95
2022-11-27T21:06:47.750Z,21.25
2022-11-27T21:09:15.518Z,18.58
2022-11-27T21:11:44.442Z,17.65
2022-11-27T21:14:14.282Z,18.27
2022-11-27T21:16:48.396Z,18.65
2022-11-27T21:19:25.557Z,18.63
2022-11-27T21:21:55.995Z,20.00
2022-11-27T21:24:27.308Z,18.65
2022-11-27T21:26:55.754Z,20.02
2022-11-27T21:29:25.548Z,23.00
2022-11-27T21:31:54.174Z,22.63
2022-11-27T21:34:21.849Z,18.13
2022-11-27T21:36:49.698Z,21.83
2022-11-27T21:39:20.700Z,20.20
2022-11-27T21:41:51.368Z,14.90
2022-11-27T21:44:21.011Z,19.50
2022-11-27T21:46:49.110Z,22.25
2022-11-27T21:49:20.265Z,20.73
2022-11-27T21:51:52.472Z,24.88
2022-11-27T21:54:23.683Z,16.05
2022-11-27T21:56:52.893Z,21.42
2022-11-27T21:59:23.040Z,17.48
2022-11-27T22:01:56.956Z,21.85
2022-11-27T22:04:25.371Z,22.88
2022-11-27T22:06:53.097Z,22.58
2022-11-27T22:09:20.039Z,18.70
2022-11-27T22:11:47.397Z,19.30
2022-11-27T22:14:16.157Z,25.73
2022-11-27T22:16:46.723Z,21.08
2022-11-27T22:19:16.416Z,17.13
2022-11-27T22:21:44.450Z,19.48
2022-11-27T22:24:16.745Z,19.30
2022-11-27T22:26:45.514Z,18.90
2022-11-27T22:29:13.563Z,18.52
2022-11-27T22:31:40.801Z,24.10
2022-11-27T22:34:07.699Z,20.85
2022-11-27T22:36:35.719Z,20.20
2022-11-27T22:39:06.782Z,18.55
2022-11-27T22:41:37.104Z,21.38
2022-11-27T22:44:17.968Z,18.42
2022-11-27T22:46:45.520Z,22.13
2022-11-27T22:49:15.743Z,22.67
2022-11-27T22:51:44.185Z,19.13
2022-11-27T22:54:17.375Z,18.30
2022-11-27T22:56:46.060Z,19.90
2022-11-27T23:02:03.863Z,18.60
2022-11-27T23:04:31.806Z,21.65
2022-11-27T23:06:59.272Z,18.95
2022-11-27T23:09:26.749Z,16.73
2022-11-27T23:11:54.026Z,16.75
2022-11-27T23:14:20.932Z,21.65
2022-11-27T23:16:48.099Z,16.92
2022-11-27T23:19:15.528Z,21.17
2022-11-27T23:21:42.405Z,22.58
2022-11-27T23:24:15.208Z,18.73
2022-11-27T23:26:43.446Z,18.70
2022-11-27T23:29:10.388Z,20.90
2022-11-27T23:31:38.511Z,21.67
2022-11-27T23:34:13.661Z,19.10
2022-11-27T23:36:40.790Z,21.92
2022-11-27T23:39:12.158Z,27.02
2022-11-27T23:41:40.712Z,20.10
2022-11-27T23:44:07.905Z,20.02
2022-11-27T23:46:34.985Z,22.98
2022-11-27T23:49:02.011Z,21.05
2022-11-27T23:51:33.388Z,19.92
2022-11-27T23:54:01.440Z,19.83
2022-11-27T23:56:31.992Z,24.60
2022-11-27T23:59:00.486Z,23.17
